sensor_id;sensor_type;location;lat;lon;timestamp;temperature;humidity
40123;DHT22;25832;45.490;4.912;2023-10-31T00:01:45;10.40;99.90
40123;DHT22;25832;45.490;4.912;2023-10-31T00:04:11;10.40;99.90
40123;DHT22;25832;45.490;4.912;2023-10-31T00:06:36;10.40;99.90
40123;DHT22;25832;45.490;4.912;2023-10-31T00:09:02;10.40;99.90
40123;DHT22;25832;45.490;4.912;2023-10-31T00:11:28;10.30;99.90
40123;DHT22;25832;45.490;4.912;2023-10-31T00:13:53;10.30;99.90
40123;DHT22;25832;45.490;4.912;2023-10-31T00:16:19;10.30;99.90
40123;DHT22;25832;45.490;4.912;2023-10-31T00:18:45;10.30;99.90
40123;DHT22;25832;45.490;4.912;2023-10-31T00:21:10;10.30;99.90
40123;DHT22;25832;45.490;4.912;2023-10-31T00:23:43;10.30;99.90
40123;DHT22;25832;45.490;4.912;2023-10-31T00:26:09;10.30;99.90
40123;DHT22;25832;45.490;4.912;2023-10-31T00:28:35;10.20;99.90
40123;DHT22;25832;45.490;4.912;2023-10-31T00:31:01;10.20;99.90
40123;DHT22;25832;45.490;4.912;2023-10-31T00:33:26;10.20;99.90
40123;DHT22;25832;45.490;4.912;2023-10-31T00:35:52;10.10;99.90
40123;DHT22;25832;45.490;4.912;2023-10-31T00:38:18;10.10;99.90
40123;DHT22;25832;45.490;4.912;2023-10-31T00:40:43;10.00;99.90
40123;DHT22;25832;45.490;4.912;2023-10-31T00:43:09;10.00;99.90
40123;DHT22;25832;45.490;4.912;2023-10-31T00:45:35;10.00;99.90
40123;DHT22;25832;45.490;4.912;2023-10-31T00:48:00;10.00;99.90
40123;DHT22;25832;45.490;4.912;2023-10-31T00:50:26;10.00;99.90
40123;DHT22;25832;45.490;4.912;2023-10-31T00:52:51;10.00;99.90
40123;DHT22;25832;45.490;4.912;2023-10-31T00:55:17;10.00;99.90
40123;DHT22;25832;45.490;4.912;2023-10-31T00:57:42;10.00;99.90
40123;DHT22;25832;45.490;4.912;2023-10-31T01:00:08;10.00;99.90
40123;DHT22;25832;45.490;4.912;2023-10-31T01:02:35;10.00;99.90
40123;DHT22;25832;45.490;4.912;2023-10-31T01:05:01;10.10;99.90
40123;DHT22;25832;45.490;4.912;2023-10-31T01:07:26;10.10;99.90
40123;DHT22;25832;45.490;4.912;2023-10-31T01:09:52;10.20;99.90
40123;DHT22;25832;45.490;4.912;2023-10-31T01:12:17;10.30;99.90
40123;DHT22;25832;45.490;4.912;2023-10-31T01:14:43;10.40;99.90
40123;DHT22;25832;45.490;4.912;2023-10-31T01:17:08;10.40;99.90
40123;DHT22;25832;45.490;4.912;2023-10-31T01:19:34;10.40;99.90
40123;DHT22;25832;45.490;4.912;2023-10-31T01:22:00;10.50;99.90
40123;DHT22;25832;45.490;4.912;2023-10-31T01:24:26;10.50;99.90
40123;DHT22;25832;45.490;4.912;2023-10-31T01:26:51;10.50;99.90
40123;DHT22;25832;45.490;4.912;2023-10-31T01:29:17;10.50;99.90
40123;DHT22;25832;45.490;4.912;2023-10-31T01:31:42;10.50;99.90
40123;DHT22;25832;45.490;4.912;2023-10-31T01:34:08;10.60;99.90
40123;DHT22;25832;45.490;4.912;2023-10-31T01:36:34;10.50;99.90
40123;DHT22;25832;45.490;4.912;2023-10-31T01:39:00;10.50;99.90
40123;DHT22;25832;45.490;4.912;2023-10-31T01:41:25;10.50;99.90
40123;DHT22;25832;45.490;4.912;2023-10-31T01:43:51;10.60;99.90
40123;DHT22;25832;45.490;4.912;2023-10-31T01:46:17;10.60;99.90
40123;DHT22;25832;45.490;4.912;2023-10-31T01:48:42;10.60;99.90
40123;DHT22;25832;45.490;4.912;2023-10-31T01:51:09;10.60;99.90
40123;DHT22;25832;45.490;4.912;2023-10-31T01:53:36;10.50;99.90
40123;DHT22;25832;45.490;4.912;2023-10-31T01:56:03;10.60;99.90
40123;DHT22;25832;45.490;4.912;2023-10-31T01:58:34;10.60;99.90
40123;DHT22;25832;45.490;4.912;2023-10-31T02:01:00;10.60;99.90
40123;DHT22;25832;45.490;4.912;2023-10-31T02:03:29;10.50;99.90
40123;DHT22;25832;45.490;4.912;2023-10-31T02:05:55;10.60;99.90
40123;DHT22;25832;45.490;4.912;2023-10-31T02:08:21;10.70;99.90
40123;DHT22;25832;45.490;4.912;2023-10-31T02:10:46;10.60;99.90
40123;DHT22;25832;45.490;4.912;2023-10-31T02:13:14;10.70;99.90
40123;DHT22;25832;45.490;4.912;2023-10-31T02:15:40;10.70;99.90
40123;DHT22;25832;45.490;4.912;2023-10-31T02:18:06;10.70;99.90
40123;DHT22;25832;45.490;4.912;2023-10-31T02:20:32;10.70;99.90
40123;DHT22;25832;45.490;4.912;2023-10-31T02:22:58;10.70;99.90
40123;DHT22;25832;45.490;4.912;2023-10-31T02:25:24;10.70;99.90
40123;DHT22;25832;45.490;4.912;2023-10-31T02:27:49;10.70;99.90
40123;DHT22;25832;45.490;4.912;2023-10-31T02:30:15;10.60;99.90
40123;DHT22;25832;45.490;4.912;2023-10-31T02:32:41;10.60;99.90
40123;DHT22;25832;45.490;4.912;2023-10-31T02:35:07;10.70;99.90
40123;DHT22;25832;45.490;4.912;2023-10-31T02:37:33;10.70;99.90
40123;DHT22;25832;45.490;4.912;2023-10-31T02:39:59;10.70;99.90
40123;DHT22;25832;45.490;4.912;2023-10-31T02:42:26;10.70;99.90
40123;DHT22;25832;45.490;4.912;2023-10-31T02:44:52;10.60;99.90
40123;DHT22;25832;45.490;4.912;2023-10-31T02:47:17;10.60;99.90
40123;DHT22;25832;45.490;4.912;2023-10-31T02:49:43;10.70;99.90
40123;DHT22;25832;45.490;4.912;2023-10-31T02:52:09;10.60;99.90
40123;DHT22;25832;45.490;4.912;2023-10-31T02:54:34;10.60;99.90
40123;DHT22;25832;45.490;4.912;2023-10-31T02:57:00;10.60;99.90
40123;DHT22;25832;45.490;4.912;2023-10-31T02:59:26;10.70;99.90
40123;DHT22;25832;45.490;4.912;2023-10-31T03:01:52;10.70;99.90
40123;DHT22;25832;45.490;4.912;2023-10-31T03:04:18;10.70;99.90
40123;DHT22;25832;45.490;4.912;2023-10-31T03:06:44;10.70;99.90
40123;DHT22;25832;45.490;4.912;2023-10-31T03:09:10;10.70;99.90
40123;DHT22;25832;45.490;4.912;2023-10-31T03:11:36;10.70;99.90
40123;DHT22;25832;45.490;4.912;2023-10-31T03:14:01;10.70;99.90
40123;DHT22;25832;45.490;4.912;2023-10-31T03:16:27;10.70;99.90
40123;DHT22;25832;45.490;4.912;2023-10-31T03:18:53;10.60;99.90
40123;DHT22;25832;45.490;4.912;2023-10-31T03:21:18;10.60;99.90
40123;DHT22;25832;45.490;4.912;2023-10-31T03:23:48;10.60;99.90
40123;DHT22;25832;45.490;4.912;2023-10-31T03:26:17;10.60;99.90
40123;DHT22;25832;45.490;4.912;2023-10-31T03:28:43;10.50;99.90
40123;DHT22;25832;45.490;4.912;2023-10-31T03:31:10;10.50;99.90
40123;DHT22;25832;45.490;4.912;2023-10-31T03:33:36;10.50;99.90
40123;DHT22;25832;45.490;4.912;2023-10-31T03:36:02;10.50;99.90
40123;DHT22;25832;45.490;4.912;2023-10-31T03:38:28;10.40;99.90
40123;DHT22;25832;45.490;4.912;2023-10-31T03:40:54;10.50;99.90
40123;DHT22;25832;45.490;4.912;2023-10-31T03:43:19;10.40;99.90
40123;DHT22;25832;45.490;4.912;2023-10-31T03:45:48;10.40;99.90
40123;DHT22;25832;45.490;4.912;2023-10-31T03:48:15;10.30;99.90
40123;DHT22;25832;45.490;4.912;2023-10-31T03:50:41;10.30;99.90
40123;DHT22;25832;45.490;4.912;2023-10-31T03:53:07;10.20;99.90
40123;DHT22;25832;45.490;4.912;2023-10-31T03:55:32;10.20;99.90
40123;DHT22;25832;45.490;4.912;2023-10-31T03:57:58;10.20;99.90
40123;DHT22;25832;45.490;4.912;2023-10-31T04:00:24;10.20;99.90
40123;DHT22;25832;45.490;4.912;2023-10-31T04:02:49;10.20;99.90
40123;DHT22;25832;45.490;4.912;2023-10-31T04:05:15;10.20;99.90
40123;DHT22;25832;45.490;4.912;2023-10-31T04:07:41;10.20;99.90
40123;DHT22;25832;45.490;4.912;2023-10-31T04:10:07;10.20;99.90
40123;DHT22;25832;45.490;4.912;2023-10-31T04:12:33;10.20;99.90
40123;DHT22;25832;45.490;4.912;2023-10-31T04:14:59;10.10;99.90
40123;DHT22;25832;45.490;4.912;2023-10-31T04:17:24;10.10;99.90
40123;DHT22;25832;45.490;4.912;2023-10-31T04:19:50;10.20;99.90
40123;DHT22;25832;45.490;4.912;2023-10-31T04:22:16;10.20;99.90
40123;DHT22;25832;45.490;4.912;2023-10-31T04:24:41;10.20;99.90
40123;DHT22;25832;45.490;4.912;2023-10-31T04:27:07;10.20;99.90
40123;DHT22;25832;45.490;4.912;2023-10-31T04:29:33;10.30;99.90
40123;DHT22;25832;45.490;4.912;2023-10-31T04:31:58;10.30;99.90
40123;DHT22;25832;45.490;4.912;2023-10-31T04:34:24;10.30;99.90
40123;DHT22;25832;45.490;4.912;2023-10-31T04:36:49;10.20;99.90
40123;DHT22;25832;45.490;4.912;2023-10-31T04:39:15;10.20;99.90
40123;DHT22;25832;45.490;4.912;2023-10-31T04:41:41;10.20;99.90
40123;DHT22;25832;45.490;4.912;2023-10-31T04:44:07;10.20;99.90
40123;DHT22;25832;45.490;4.912;2023-10-31T04:46:32;10.20;99.90
40123;DHT22;25832;45.490;4.912;2023-10-31T04:48:59;10.20;99.90
40123;DHT22;25832;45.490;4.912;2023-10-31T04:51:24;10.20;99.90
40123;DHT22;25832;45.490;4.912;2023-10-31T04:53:50;10.20;99.90
40123;DHT22;25832;45.490;4.912;2023-10-31T04:56:16;10.20;99.90
40123;DHT22;25832;45.490;4.912;2023-10-31T04:58:42;10.10;99.90
40123;DHT22;25832;45.490;4.912;2023-10-31T05:01:12;10.20;99.90
40123;DHT22;25832;45.490;4.912;2023-10-31T05:03:38;10.20;99.90
40123;DHT22;25832;45.490;4.912;2023-10-31T05:06:05;10.20;99.90
40123;DHT22;25832;45.490;4.912;2023-10-31T05:08:31;10.20;99.90
40123;DHT22;25832;45.490;4.912;2023-10-31T05:10:58;10.20;99.90
40123;DHT22;25832;45.490;4.912;2023-10-31T05:13:24;10.20;99.90
40123;DHT22;25832;45.490;4.912;2023-10-31T05:15:50;10.20;99.90
40123;DHT22;25832;45.490;4.912;2023-10-31T05:18:16;10.30;99.90
40123;DHT22;25832;45.490;4.912;2023-10-31T05:20:42;10.30;99.90
40123;DHT22;25832;45.490;4.912;2023-10-31T05:23:07;10.30;99.90
40123;DHT22;25832;45.490;4.912;2023-10-31T05:25:34;10.30;99.90
40123;DHT22;25832;45.490;4.912;2023-10-31T05:28:00;10.30;99.90
40123;DHT22;25832;45.490;4.912;2023-10-31T05:30:26;10.30;99.90
40123;DHT22;25832;45.490;4.912;2023-10-31T05:32:51;10.30;99.90
40123;DHT22;25832;45.490;4.912;2023-10-31T05:35:17;10.20;99.90
40123;DHT22;25832;45.490;4.912;2023-10-31T05:37:45;10.20;99.90
40123;DHT22;25832;45.490;4.912;2023-10-31T05:40:11;10.20;99.90
40123;DHT22;25832;45.490;4.912;2023-10-31T05:42:37;10.20;99.90
40123;DHT22;25832;45.490;4.912;2023-10-31T05:45:03;10.10;99.90
40123;DHT22;25832;45.490;4.912;2023-10-31T05:47:28;10.10;99.90
40123;DHT22;25832;45.490;4.912;2023-10-31T05:49:54;10.10;99.90
40123;DHT22;25832;45.490;4.912;2023-10-31T05:52:20;10.20;99.90
40123;DHT22;25832;45.490;4.912;2023-10-31T05:54:45;10.10;99.90
40123;DHT22;25832;45.490;4.912;2023-10-31T05:57:11;10.10;99.90
40123;DHT22;25832;45.490;4.912;2023-10-31T05:59:37;10.10;99.90
40123;DHT22;25832;45.490;4.912;2023-10-31T06:02:02;10.00;99.90
40123;DHT22;25832;45.490;4.912;2023-10-31T06:04:28;10.00;99.90
40123;DHT22;25832;45.490;4.912;2023-10-31T06:06:54;10.00;99.90
40123;DHT22;25832;45.490;4.912;2023-10-31T06:09:19;10.20;99.90
40123;DHT22;25832;45.490;4.912;2023-10-31T06:11:45;10.10;99.90
40123;DHT22;25832;45.490;4.912;2023-10-31T06:14:11;10.10;99.90
40123;DHT22;25832;45.490;4.912;2023-10-31T06:16:40;10.10;99.90
40123;DHT22;25832;45.490;4.912;2023-10-31T06:19:07;10.10;99.90
40123;DHT22;25832;45.490;4.912;2023-10-31T06:21:32;10.10;99.90
40123;DHT22;25832;45.490;4.912;2023-10-31T06:23:58;10.10;99.90
40123;DHT22;25832;45.490;4.912;2023-10-31T06:26:24;10.10;99.90
40123;DHT22;25832;45.490;4.912;2023-10-31T06:28:49;10.20;99.90
40123;DHT22;25832;45.490;4.912;2023-10-31T06:31:15;10.10;99.90
40123;DHT22;25832;45.490;4.912;2023-10-31T06:33:41;10.10;99.90
40123;DHT22;25832;45.490;4.912;2023-10-31T06:36:07;10.20;99.90
40123;DHT22;25832;45.490;4.912;2023-10-31T06:38:33;10.10;99.90
40123;DHT22;25832;45.490;4.912;2023-10-31T06:40:59;10.20;99.90
40123;DHT22;25832;45.490;4.912;2023-10-31T06:43:25;10.20;99.90
40123;DHT22;25832;45.490;4.912;2023-10-31T06:45:51;10.20;99.90
40123;DHT22;25832;45.490;4.912;2023-10-31T06:48:16;10.30;99.90
40123;DHT22;25832;45.490;4.912;2023-10-31T06:50:42;10.30;99.90
40123;DHT22;25832;45.490;4.912;2023-10-31T06:53:08;10.40;99.90
40123;DHT22;25832;45.490;4.912;2023-10-31T06:55:33;10.30;99.90
40123;DHT22;25832;45.490;4.912;2023-10-31T06:57:59;10.40;99.90
40123;DHT22;25832;45.490;4.912;2023-10-31T07:00:25;10.50;99.90
40123;DHT22;25832;45.490;4.912;2023-10-31T07:02:50;10.50;99.90
40123;DHT22;25832;45.490;4.912;2023-10-31T07:05:16;10.50;99.90
40123;DHT22;25832;45.490;4.912;2023-10-31T07:07:42;10.60;99.90
40123;DHT22;25832;45.490;4.912;2023-10-31T07:10:08;10.70;99.90
40123;DHT22;25832;45.490;4.912;2023-10-31T07:12:34;10.70;99.90
40123;DHT22;25832;45.490;4.912;2023-10-31T07:14:59;10.70;99.90
40123;DHT22;25832;45.490;4.912;2023-10-31T07:17:28;10.80;99.90
40123;DHT22;25832;45.490;4.912;2023-10-31T07:19:53;10.90;99.90
40123;DHT22;25832;45.490;4.912;2023-10-31T07:22:19;10.90;99.90
40123;DHT22;25832;45.490;4.912;2023-10-31T07:24:45;10.90;99.90
40123;DHT22;25832;45.490;4.912;2023-10-31T07:27:10;10.90;99.90
40123;DHT22;25832;45.490;4.912;2023-10-31T07:29:39;10.90;99.90
40123;DHT22;25832;45.490;4.912;2023-10-31T07:32:06;11.00;99.90
40123;DHT22;25832;45.490;4.912;2023-10-31T07:34:31;11.00;99.90
40123;DHT22;25832;45.490;4.912;2023-10-31T07:36:57;11.00;99.90
40123;DHT22;25832;45.490;4.912;2023-10-31T07:39:22;11.10;99.90
40123;DHT22;25832;45.490;4.912;2023-10-31T07:41:48;11.10;99.90
40123;DHT22;25832;45.490;4.912;2023-10-31T07:44:14;11.10;99.90
40123;DHT22;25832;45.490;4.912;2023-10-31T07:46:39;11.10;99.90
40123;DHT22;25832;45.490;4.912;2023-10-31T07:49:05;11.20;99.90
40123;DHT22;25832;45.490;4.912;2023-10-31T07:51:31;11.20;99.90
40123;DHT22;25832;45.490;4.912;2023-10-31T07:53:57;11.20;99.90
40123;DHT22;25832;45.490;4.912;2023-10-31T07:56:23;11.20;99.90
40123;DHT22;25832;45.490;4.912;2023-10-31T07:58:50;11.20;99.90
40123;DHT22;25832;45.490;4.912;2023-10-31T08:01:20;11.20;99.90
40123;DHT22;25832;45.490;4.912;2023-10-31T08:03:46;11.20;99.90
40123;DHT22;25832;45.490;4.912;2023-10-31T08:06:12;11.20;99.90
40123;DHT22;25832;45.490;4.912;2023-10-31T08:08:38;11.30;99.90
40123;DHT22;25832;45.490;4.912;2023-10-31T08:11:06;11.40;99.90
40123;DHT22;25832;45.490;4.912;2023-10-31T08:13:32;11.50;99.90
40123;DHT22;25832;45.490;4.912;2023-10-31T08:15:58;11.50;99.90
40123;DHT22;25832;45.490;4.912;2023-10-31T08:18:24;11.50;99.90
40123;DHT22;25832;45.490;4.912;2023-10-31T08:20:50;11.50;99.90
40123;DHT22;25832;45.490;4.912;2023-10-31T08:23:19;11.60;99.90
40123;DHT22;25832;45.490;4.912;2023-10-31T08:25:45;11.60;99.90
40123;DHT22;25832;45.490;4.912;2023-10-31T08:28:11;11.70;99.90
40123;DHT22;25832;45.490;4.912;2023-10-31T08:30:37;11.70;99.90
40123;DHT22;25832;45.490;4.912;2023-10-31T08:33:03;11.80;99.90
40123;DHT22;25832;45.490;4.912;2023-10-31T08:35:29;11.90;99.90
40123;DHT22;25832;45.490;4.912;2023-10-31T08:37:55;12.00;99.90
40123;DHT22;25832;45.490;4.912;2023-10-31T08:40:21;12.10;99.90
40123;DHT22;25832;45.490;4.912;2023-10-31T08:42:46;12.20;99.90
40123;DHT22;25832;45.490;4.912;2023-10-31T08:45:12;12.30;99.90
40123;DHT22;25832;45.490;4.912;2023-10-31T08:47:38;12.40;99.90
40123;DHT22;25832;45.490;4.912;2023-10-31T08:50:03;12.50;99.90
40123;DHT22;25832;45.490;4.912;2023-10-31T08:52:29;12.60;99.90
40123;DHT22;25832;45.490;4.912;2023-10-31T08:54:55;12.70;99.90
40123;DHT22;25832;45.490;4.912;2023-10-31T08:57:21;12.80;99.90
40123;DHT22;25832;45.490;4.912;2023-10-31T08:59:47;12.90;99.90
40123;DHT22;25832;45.490;4.912;2023-10-31T09:02:13;13.00;99.90
40123;DHT22;25832;45.490;4.912;2023-10-31T09:04:38;13.10;99.90
40123;DHT22;25832;45.490;4.912;2023-10-31T09:07:04;13.20;99.90
40123;DHT22;25832;45.490;4.912;2023-10-31T09:09:29;13.30;99.90
40123;DHT22;25832;45.490;4.912;2023-10-31T09:11:55;13.40;99.90
40123;DHT22;25832;45.490;4.912;2023-10-31T09:14:21;13.50;99.90
40123;DHT22;25832;45.490;4.912;2023-10-31T09:16:46;13.70;99.90
40123;DHT22;25832;45.490;4.912;2023-10-31T09:19:12;13.80;99.90
40123;DHT22;25832;45.490;4.912;2023-10-31T09:21:38;13.90;99.90
40123;DHT22;25832;45.490;4.912;2023-10-31T09:24:03;13.90;99.90
40123;DHT22;25832;45.490;4.912;2023-10-31T09:26:29;14.00;99.90
40123;DHT22;25832;45.490;4.912;2023-10-31T09:28:55;14.00;99.90
40123;DHT22;25832;45.490;4.912;2023-10-31T09:31:21;14.10;99.90
40123;DHT22;25832;45.490;4.912;2023-10-31T09:33:46;14.10;99.90
40123;DHT22;25832;45.490;4.912;2023-10-31T09:36:12;14.20;99.90
40123;DHT22;25832;45.490;4.912;2023-10-31T09:38:39;14.30;99.90
40123;DHT22;25832;45.490;4.912;2023-10-31T09:41:06;14.50;99.90
40123;DHT22;25832;45.490;4.912;2023-10-31T09:43:31;14.60;99.90
40123;DHT22;25832;45.490;4.912;2023-10-31T09:45:57;14.70;99.90
40123;DHT22;25832;45.490;4.912;2023-10-31T09:48:23;14.60;99.90
40123;DHT22;25832;45.490;4.912;2023-10-31T09:50:49;14.60;99.90
40123;DHT22;25832;45.490;4.912;2023-10-31T09:53:16;14.50;99.90
40123;DHT22;25832;45.490;4.912;2023-10-31T09:55:45;14.50;99.90
40123;DHT22;25832;45.490;4.912;2023-10-31T09:58:12;14.50;99.90
40123;DHT22;25832;45.490;4.912;2023-10-31T10:00:37;14.50;99.90
40123;DHT22;25832;45.490;4.912;2023-10-31T10:03:07;14.50;99.90
40123;DHT22;25832;45.490;4.912;2023-10-31T10:05:35;14.50;99.90
40123;DHT22;25832;45.490;4.912;2023-10-31T10:08:01;14.50;99.90
40123;DHT22;25832;45.490;4.912;2023-10-31T10:10:28;14.60;99.90
40123;DHT22;25832;45.490;4.912;2023-10-31T10:12:55;14.60;99.90
40123;DHT22;25832;45.490;4.912;2023-10-31T10:15:21;14.60;99.90
40123;DHT22;25832;45.490;4.912;2023-10-31T10:17:51;14.60;99.90
40123;DHT22;25832;45.490;4.912;2023-10-31T10:20:17;14.60;99.90
40123;DHT22;25832;45.490;4.912;2023-10-31T10:22:44;14.50;99.90
40123;DHT22;25832;45.490;4.912;2023-10-31T10:25:11;14.50;99.90
40123;DHT22;25832;45.490;4.912;2023-10-31T10:27:37;14.40;99.90
40123;DHT22;25832;45.490;4.912;2023-10-31T10:30:04;14.50;99.90
40123;DHT22;25832;45.490;4.912;2023-10-31T10:32:30;14.50;99.90
40123;DHT22;25832;45.490;4.912;2023-10-31T10:34:56;14.50;99.90
40123;DHT22;25832;45.490;4.912;2023-10-31T10:37:21;14.50;99.90
40123;DHT22;25832;45.490;4.912;2023-10-31T10:39:51;14.50;99.90
40123;DHT22;25832;45.490;4.912;2023-10-31T10:42:31;14.50;99.90
40123;DHT22;25832;45.490;4.912;2023-10-31T10:45:02;14.40;99.90
40123;DHT22;25832;45.490;4.912;2023-10-31T10:47:33;14.40;99.90
40123;DHT22;25832;45.490;4.912;2023-10-31T10:50:00;14.40;99.90
40123;DHT22;25832;45.490;4.912;2023-10-31T10:52:55;14.30;99.90
40123;DHT22;25832;45.490;4.912;2023-10-31T10:55:26;14.20;99.90
40123;DHT22;25832;45.490;4.912;2023-10-31T10:58:09;14.20;99.90
40123;DHT22;25832;45.490;4.912;2023-10-31T11:00:39;14.20;99.90
40123;DHT22;25832;45.490;4.912;2023-10-31T11:03:07;14.30;99.90
40123;DHT22;25832;45.490;4.912;2023-10-31T11:05:33;14.30;99.90
40123;DHT22;25832;45.490;4.912;2023-10-31T11:08:01;14.40;99.90
40123;DHT22;25832;45.490;4.912;2023-10-31T11:10:28;14.40;99.90
40123;DHT22;25832;45.490;4.912;2023-10-31T11:12:54;14.50;99.90
40123;DHT22;25832;45.490;4.912;2023-10-31T11:15:22;14.50;99.90
40123;DHT22;25832;45.490;4.912;2023-10-31T11:17:48;14.50;99.90
40123;DHT22;25832;45.490;4.912;2023-10-31T11:20:15;14.40;99.90
40123;DHT22;25832;45.490;4.912;2023-10-31T11:22:45;14.40;99.90
40123;DHT22;25832;45.490;4.912;2023-10-31T11:25:18;14.30;99.90
40123;DHT22;25832;45.490;4.912;2023-10-31T11:27:45;14.30;99.90
40123;DHT22;25832;45.490;4.912;2023-10-31T11:30:33;14.20;99.90
40123;DHT22;25832;45.490;4.912;2023-10-31T11:32:59;14.30;99.90
40123;DHT22;25832;45.490;4.912;2023-10-31T11:35:29;14.40;99.90
40123;DHT22;25832;45.490;4.912;2023-10-31T11:38:09;14.40;99.90
40123;DHT22;25832;45.490;4.912;2023-10-31T11:41:00;14.50;99.90
40123;DHT22;25832;45.490;4.912;2023-10-31T11:43:56;14.50;99.90
40123;DHT22;25832;45.490;4.912;2023-10-31T11:46:24;14.50;99.90
40123;DHT22;25832;45.490;4.912;2023-10-31T11:48:54;14.60;99.90
40123;DHT22;25832;45.490;4.912;2023-10-31T11:51:23;14.50;99.90
40123;DHT22;25832;45.490;4.912;2023-10-31T11:53:49;14.60;99.90
40123;DHT22;25832;45.490;4.912;2023-10-31T11:56:15;14.60;99.90
40123;DHT22;25832;45.490;4.912;2023-10-31T11:58:41;14.50;99.90
40123;DHT22;25832;45.490;4.912;2023-10-31T12:01:09;14.50;99.90
40123;DHT22;25832;45.490;4.912;2023-10-31T12:03:42;14.50;99.90
40123;DHT22;25832;45.490;4.912;2023-10-31T12:06:09;14.50;99.90
40123;DHT22;25832;45.490;4.912;2023-10-31T12:08:37;14.50;99.90
40123;DHT22;25832;45.490;4.912;2023-10-31T12:11:10;14.40;99.90
40123;DHT22;25832;45.490;4.912;2023-10-31T12:13:41;14.40;99.90
40123;DHT22;25832;45.490;4.912;2023-10-31T12:16:09;14.50;99.90
40123;DHT22;25832;45.490;4.912;2023-10-31T12:18:36;14.40;99.90
40123;DHT22;25832;45.490;4.912;2023-10-31T12:21:04;14.50;99.90
40123;DHT22;25832;45.490;4.912;2023-10-31T12:23:30;14.40;99.90
40123;DHT22;25832;45.490;4.912;2023-10-31T12:25:55;14.50;99.90
40123;DHT22;25832;45.490;4.912;2023-10-31T12:28:23;14.50;99.90
40123;DHT22;25832;45.490;4.912;2023-10-31T12:30:51;14.50;99.90
40123;DHT22;25832;45.490;4.912;2023-10-31T12:33:20;14.50;99.90
40123;DHT22;25832;45.490;4.912;2023-10-31T12:35:47;14.60;99.90
40123;DHT22;25832;45.490;4.912;2023-10-31T12:38:14;14.60;99.90
40123;DHT22;25832;45.490;4.912;2023-10-31T12:40:41;14.70;99.90
40123;DHT22;25832;45.490;4.912;2023-10-31T12:43:08;14.80;99.90
40123;DHT22;25832;45.490;4.912;2023-10-31T12:45:34;15.00;99.90
40123;DHT22;25832;45.490;4.912;2023-10-31T12:48:03;15.10;99.90
40123;DHT22;25832;45.490;4.912;2023-10-31T12:50:33;15.20;99.90
40123;DHT22;25832;45.490;4.912;2023-10-31T12:53:00;15.20;99.90
40123;DHT22;25832;45.490;4.912;2023-10-31T12:55:27;15.30;99.90
40123;DHT22;25832;45.490;4.912;2023-10-31T12:57:57;15.30;99.90
40123;DHT22;25832;45.490;4.912;2023-10-31T13:00:30;15.40;99.90
40123;DHT22;25832;45.490;4.912;2023-10-31T13:03:07;15.50;99.90
40123;DHT22;25832;45.490;4.912;2023-10-31T13:05:34;15.60;99.90
40123;DHT22;25832;45.490;4.912;2023-10-31T13:08:00;15.60;99.90
40123;DHT22;25832;45.490;4.912;2023-10-31T13:10:28;15.60;99.90
40123;DHT22;25832;45.490;4.912;2023-10-31T13:12:55;15.70;99.90
40123;DHT22;25832;45.490;4.912;2023-10-31T13:15:22;15.80;99.90
40123;DHT22;25832;45.490;4.912;2023-10-31T13:17:51;16.00;99.90
40123;DHT22;25832;45.490;4.912;2023-10-31T13:20:18;16.20;99.90
40123;DHT22;25832;45.490;4.912;2023-10-31T13:22:45;16.30;99.90
40123;DHT22;25832;45.490;4.912;2023-10-31T13:25:12;16.50;99.90
40123;DHT22;25832;45.490;4.912;2023-10-31T13:27:39;16.60;99.90
40123;DHT22;25832;45.490;4.912;2023-10-31T13:30:07;16.60;99.90
40123;DHT22;25832;45.490;4.912;2023-10-31T13:32:33;16.60;99.90
40123;DHT22;25832;45.490;4.912;2023-10-31T13:34:59;16.50;99.90
40123;DHT22;25832;45.490;4.912;2023-10-31T13:37:25;16.50;99.90
40123;DHT22;25832;45.490;4.912;2023-10-31T13:39:51;16.60;99.90
40123;DHT22;25832;45.490;4.912;2023-10-31T13:42:17;16.60;99.90
40123;DHT22;25832;45.490;4.912;2023-10-31T13:44:43;16.70;99.90
40123;DHT22;25832;45.490;4.912;2023-10-31T13:47:09;16.90;99.90
40123;DHT22;25832;45.490;4.912;2023-10-31T13:49:37;17.00;99.90
40123;DHT22;25832;45.490;4.912;2023-10-31T13:52:04;17.00;99.90
40123;DHT22;25832;45.490;4.912;2023-10-31T13:54:34;17.00;99.90
40123;DHT22;25832;45.490;4.912;2023-10-31T13:57:00;17.10;99.90
40123;DHT22;25832;45.490;4.912;2023-10-31T13:59:26;17.10;99.90
40123;DHT22;25832;45.490;4.912;2023-10-31T14:01:52;17.20;99.90
40123;DHT22;25832;45.490;4.912;2023-10-31T14:04:18;17.20;99.90
40123;DHT22;25832;45.490;4.912;2023-10-31T14:06:45;17.20;99.90
40123;DHT22;25832;45.490;4.912;2023-10-31T14:09:11;17.30;99.90
40123;DHT22;25832;45.490;4.912;2023-10-31T14:11:38;17.40;99.90
40123;DHT22;25832;45.490;4.912;2023-10-31T14:14:04;17.40;99.90
40123;DHT22;25832;45.490;4.912;2023-10-31T14:16:41;17.50;99.90
40123;DHT22;25832;45.490;4.912;2023-10-31T14:19:10;17.50;99.90
40123;DHT22;25832;45.490;4.912;2023-10-31T14:21:37;17.50;99.90
40123;DHT22;25832;45.490;4.912;2023-10-31T14:24:03;17.50;99.90
40123;DHT22;25832;45.490;4.912;2023-10-31T14:26:30;17.40;99.90
40123;DHT22;25832;45.490;4.912;2023-10-31T14:28:56;17.30;99.90
40123;DHT22;25832;45.490;4.912;2023-10-31T14:31:22;17.30;99.90
40123;DHT22;25832;45.490;4.912;2023-10-31T14:33:47;17.30;99.90
40123;DHT22;25832;45.490;4.912;2023-10-31T14:36:13;17.20;99.80
40123;DHT22;25832;45.490;4.912;2023-10-31T14:38:40;17.10;99.90
40123;DHT22;25832;45.490;4.912;2023-10-31T14:41:06;17.10;99.90
40123;DHT22;25832;45.490;4.912;2023-10-31T14:43:33;17.00;99.90
40123;DHT22;25832;45.490;4.912;2023-10-31T14:45:59;16.90;99.90
40123;DHT22;25832;45.490;4.912;2023-10-31T14:48:25;16.90;99.90
40123;DHT22;25832;45.490;4.912;2023-10-31T14:50:50;16.90;99.90
40123;DHT22;25832;45.490;4.912;2023-10-31T14:53:17;16.90;99.90
40123;DHT22;25832;45.490;4.912;2023-10-31T14:55:46;16.80;99.90
40123;DHT22;25832;45.490;4.912;2023-10-31T14:58:12;16.80;99.90
40123;DHT22;25832;45.490;4.912;2023-10-31T15:00:37;16.70;99.90
40123;DHT22;25832;45.490;4.912;2023-10-31T15:03:04;16.60;99.90
40123;DHT22;25832;45.490;4.912;2023-10-31T15:05:30;16.60;99.90
40123;DHT22;25832;45.490;4.912;2023-10-31T15:07:56;16.50;99.90
40123;DHT22;25832;45.490;4.912;2023-10-31T15:10:25;16.40;99.90
40123;DHT22;25832;45.490;4.912;2023-10-31T15:12:53;16.40;99.90
40123;DHT22;25832;45.490;4.912;2023-10-31T15:15:19;16.40;99.90
40123;DHT22;25832;45.490;4.912;2023-10-31T15:17:46;16.40;99.90
40123;DHT22;25832;45.490;4.912;2023-10-31T15:20:17;16.40;99.90
40123;DHT22;25832;45.490;4.912;2023-10-31T15:22:43;16.40;99.90
40123;DHT22;25832;45.490;4.912;2023-10-31T15:25:09;16.30;99.90
40123;DHT22;25832;45.490;4.912;2023-10-31T15:27:35;16.20;99.90